Time;durP1;ratioP1;P1;durP2;ratioP2;P2;SDS_P1;SDS_P2;PMS_P1;PMS_P2;Temp;Humidity;BMP_temperature;BMP_pressure;BME280_temperature;BME280_humidity;BME280_pressure;Samples;Min_cycle;Max_cycle;Signal;HPM_P1;HPM_P2
2023/05/15 00:08:20;;;;;;;4.65;3.95;;;;;;;11.03;59.33;100264.72;20737702;28;20193;-76
2023/05/15 00:18:22;;;;;;;4.70;4.28;;;;;;;11.14;59.73;100265.94;20789557;28;20246;-76
2023/05/15 00:28:24;;;;;;;6.32;3.90;;;;;;;10.62;61.62;100266.44;20798227;28;20205;-76
2023/05/15 00:38:27;;;;;;;3.60;3.30;;;;;;;10.45;61.54;100256.09;20797949;28;20217;-77
2023/05/15 00:48:30;;;;;;;5.53;4.93;;;;;;;10.67;59.89;100249.28;20816778;28;20231;-77
2023/05/15 00:58:32;;;;;;;5.18;4.70;;;;;;;10.87;59.26;100239.13;20782956;28;20266;-77
2023/05/15 01:08:55;;;;;;;5.35;4.85;;;;;;;10.31;61.64;100249.06;20796090;28;20188;-76
2023/05/15 01:18:57;;;;;;;6.50;5.00;;;;;;;10.42;61.35;100250.28;20814298;28;20244;-76
2023/05/15 01:29:23;;;;;;;7.75;6.30;;;;;;;10.51;62.24;100249.09;20812025;28;20184;-77
2023/05/15 01:39:26;;;;;;;5.65;5.15;;;;;;;10.07;63.96;100249.72;20808634;28;20263;-76
2023/05/15 01:49:30;;;;;;;5.80;5.23;;;;;;;9.84;64.35;100241.53;20792489;28;20231;-77
2023/05/15 01:59:33;;;;;;;6.15;5.55;;;;;;;9.88;64.06;100236.03;20793810;28;20266;-77
2023/05/15 02:09:36;;;;;;;9.90;5.78;;;;;;;9.79;65.23;100243.72;20802312;28;20189;-77
2023/05/15 02:19:38;;;;;;;6.07;5.53;;;;;;;9.46;65.71;100235.88;20821708;28;20232;-77
2023/05/15 02:29:56;;;;;;;7.80;7.10;;;;;;;9.86;64.87;100229.91;20819706;28;20196;-76
2023/05/15 02:40:00;;;;;;;8.65;7.60;;;;;;;9.68;65.54;100236.81;20818766;28;20274;-77
2023/05/15 02:50:03;;;;;;;9.53;8.57;;;;;;;9.41;66.13;100238.06;20837696;28;20274;-77
2023/05/15 03:00:10;;;;;;;14.02;10.35;;;;;;;9.56;67.68;100238.31;20803298;28;20227;-77
2023/05/15 03:10:12;;;;;;;14.80;11.85;;;;;;;9.51;68.16;100227.25;20791642;28;20189;-76
2023/05/15 03:20:15;;;;;;;17.45;13.65;;;;;;;9.43;68.70;100230.94;20802323;28;20220;-79
2023/05/15 03:30:17;;;;;;;15.00;13.43;;;;;;;9.16;71.13;100242.59;20833710;28;20230;-76
2023/05/15 03:40:19;;;;;;;28.10;18.83;;;;;;;9.41;73.18;100235.25;20807710;28;20208;-76
2023/05/15 03:50:21;;;;;;;32.40;18.93;;;;;;;9.56;72.91;100235.47;20803646;28;20189;-76
2023/05/15 04:00:23;;;;;;;29.55;21.30;;;;;;;9.67;72.03;100235.16;20780175;28;20294;-82
2023/05/15 04:10:26;;;;;;;34.95;21.95;;;;;;;9.62;71.77;100239.00;20811816;28;20243;-76
2023/05/15 04:20:28;;;;;;;37.30;25.77;;;;;;;9.96;71.92;100237.97;20799022;28;20702;-77
2023/05/15 04:30:30;;;;;;;38.97;27.63;;;;;;;9.89;71.95;100237.69;20819599;28;20189;-76
2023/05/15 04:40:32;;;;;;;44.60;31.10;;;;;;;10.67;68.49;100235.19;20822629;28;20219;-77
2023/05/15 04:50:35;;;;;;;46.57;31.93;;;;;;;10.38;69.97;100244.50;20797094;28;20582;-76
2023/05/15 05:00:38;;;;;;;62.35;38.55;;;;;;;10.75;67.31;100237.09;20856299;28;20302;-76
2023/05/15 05:10:40;;;;;;;66.35;40.97;;;;;;;10.23;68.89;100225.34;20836046;28;20196;-85
2023/05/15 05:20:43;;;;;;;75.43;44.95;;;;;;;10.45;69.34;100239.16;20848157;28;20880;-81
2023/05/15 05:30:46;;;;;;;70.07;42.85;;;;;;;10.43;68.38;100235.84;20813949;28;20205;-88
2023/05/15 05:40:49;;;;;;;75.20;46.77;;;;;;;10.16;69.52;100242.84;20857320;28;20224;-90
2023/05/15 05:50:52;;;;;;;73.10;45.73;;;;;;;10.18;69.25;100248.97;20843056;28;20197;-87
2023/05/15 06:00:54;;;;;;;73.23;45.57;;;;;;;10.14;69.61;100245.16;20874607;28;20621;-85
2023/05/15 06:10:56;;;;;;;74.05;45.03;;;;;;;10.12;68.38;100253.16;20857635;28;20181;-85
2023/05/15 06:20:59;;;;;;;65.43;42.88;;;;;;;10.56;66.36;100270.63;20789515;28;20275;-88
2023/05/15 06:31:01;;;;;;;73.68;47.10;;;;;;;10.55;65.69;100263.34;20759240;28;20189;-87
2023/05/15 06:41:04;;;;;;;65.60;43.63;;;;;;;10.32;66.79;100273.28;20763738;28;20625;-80
2023/05/15 06:51:06;;;;;;;53.13;40.55;;;;;;;10.40;65.66;100263.91;20746075;28;20594;-83
2023/05/15 07:01:09;;;;;;;43.93;33.37;;;;;;;10.75;65.03;100275.78;20723414;28;20287;-80
2023/05/15 07:11:11;;;;;;;49.22;35.75;;;;;;;11.13;64.47;100265.13;20761729;28;20221;-79
2023/05/15 07:21:13;;;;;;;55.13;37.58;;;;;;;11.51;61.76;100270.56;20710459;28;20225;-85
2023/05/15 07:31:15;;;;;;;59.90;41.55;;;;;;;11.36;63.45;100279.72;20745554;28;20190;-83
2023/05/15 07:41:17;;;;;;;58.60;42.00;;;;;;;11.37;63.31;100289.88;20734294;28;20217;-78
2023/05/15 07:51:19;;;;;;;66.22;45.25;;;;;;;11.24;63.70;100283.31;20748834;28;20193;-82
2023/05/15 08:01:21;;;;;;;61.47;42.75;;;;;;;10.56;65.25;100273.47;20736204;28;20240;-80
2023/05/15 08:11:24;;;;;;;57.47;40.30;;;;;;;11.14;61.95;100271.59;20740733;28;20193;-83
2023/05/15 08:21:26;;;;;;;49.05;36.25;;;;;;;10.72;62.83;100271.69;20733725;28;20228;-82
2023/05/15 08:31:28;;;;;;;47.33;37.50;;;;;;;11.36;61.14;100268.44;20719608;28;20189;-88
2023/05/15 08:41:32;;;;;;;45.47;34.13;;;;;;;11.94;59.57;100258.69;20744742;28;20228;-86
2023/05/15 08:51:42;;;;;;;41.78;32.85;;;;;;;12.42;57.51;100253.41;20750126;28;20262;-90
2023/05/15 09:01:44;;;;;;;37.85;31.25;;;;;;;12.13;57.91;100252.47;20753974;28;20518;-83
2023/05/15 09:11:49;;;;;;;31.08;24.77;;;;;;;12.46;58.59;100249.47;20735152;28;20198;-85
2023/05/15 09:21:52;;;;;;;28.17;22.10;;;;;;;12.82;55.32;100244.88;20724035;28;20272;-84
2023/05/15 09:31:54;;;;;;;25.38;20.35;;;;;;;13.27;53.32;100244.59;20740341;28;20193;-84
2023/05/15 09:42:11;;;;;;;22.77;16.02;;;;;;;13.75;50.05;100238.59;20746957;28;20229;-85
2023/05/15 09:52:14;;;;;;;17.02;14.95;;;;;;;13.45;51.35;100234.56;20744649;28;20209;-79
2023/05/15 10:02:23;;;;;;;19.00;14.80;;;;;;;13.77;48.82;100230.56;20752548;28;20220;-86
2023/05/15 10:12:27;;;;;;;16.20;14.45;;;;;;;13.39;49.94;100236.84;20733526;28;20282;-86
2023/05/15 10:22:31;;;;;;;15.95;13.40;;;;;;;14.59;49.51;100220.34;20793700;28;20298;-82
2023/05/15 10:32:34;;;;;;;15.95;13.00;;;;;;;15.02;47.32;100205.81;20814108;28;20250;-85
2023/05/15 10:42:37;;;;;;;19.50;13.00;;;;;;;14.42;48.19;100205.34;20813471;28;20247;-84
2023/05/15 10:52:39;;;;;;;14.02;12.45;;;;;;;15.55;44.91;100191.78;20784843;28;20239;-84
2023/05/15 11:02:43;;;;;;;20.65;14.73;;;;;;;14.02;47.83;100193.44;20789645;28;20247;-85
2023/05/15 11:13:00;;;;;;;16.45;12.32;;;;;;;15.51;43.56;100182.38;20806140;28;20224;-85
2023/05/15 11:23:03;;;;;;;15.73;12.20;;;;;;;15.55;43.04;100166.19;20799910;28;20555;-80
2023/05/15 11:33:08;;;;;;;13.30;10.18;;;;;;;15.36;41.54;100169.94;20826176;28;20192;-77
2023/05/15 11:43:28;;;;;;;7.90;7.10;;;;;;;15.68;39.94;100164.78;20828216;28;20274;-78
2023/05/15 11:53:32;;;;;;;13.38;8.18;;;;;;;15.39;38.73;100146.44;20813112;28;20192;-79
2023/05/15 12:03:34;;;;;;;10.18;7.22;;;;;;;16.17;38.13;100129.78;20801955;28;20212;-83
2023/05/15 12:13:38;;;;;;;8.32;5.70;;;;;;;16.64;37.25;100120.63;20823043;28;20624;-77
2023/05/15 12:23:43;;;;;;;7.22;6.18;;;;;;;16.97;35.51;100111.22;20800867;28;20224;-78
2023/05/15 12:33:57;;;;;;;7.28;5.68;;;;;;;16.76;35.71;100111.00;20804263;28;20251;-78
2023/05/15 12:43:59;;;;;;;10.02;6.68;;;;;;;17.26;35.44;100098.06;20820790;28;20569;-77
2023/05/15 12:54:01;;;;;;;7.20;5.45;;;;;;;16.42;36.11;100111.00;20824105;28;20246;-77
2023/05/15 13:04:04;;;;;;;4.05;3.58;;;;;;;16.60;32.64;100094.91;20830069;28;20220;-77
2023/05/15 13:14:15;;;;;;;4.30;3.88;;;;;;;17.41;31.04;100107.59;20816255;28;20224;-77
2023/05/15 13:24:18;;;;;;;9.63;3.83;;;;;;;17.40;30.84;100091.69;20829347;28;20278;-74
2023/05/15 13:34:20;;;;;;;4.75;3.47;;;;;;;16.68;32.17;100092.19;20838629;28;20192;-75
2023/05/15 13:44:23;;;;;;;3.60;3.30;;;;;;;16.42;32.47;100099.59;20866102;28;20223;-81
2023/05/15 13:54:25;;;;;;;7.32;4.45;;;;;;;16.45;32.02;100084.53;20821264;28;20665;-79
2023/05/15 14:04:28;;;;;;;4.97;3.92;;;;;;;17.01;30.97;100083.56;20814128;28;20212;-81
2023/05/15 14:14:30;;;;;;;5.45;4.43;;;;;;;16.04;34.42;100102.75;20797841;28;20279;-74
2023/05/15 14:24:32;;;;;;;7.53;5.72;;;;;;;16.51;34.62;100091.56;20762737;28;20275;-76
2023/05/15 14:34:34;;;;;;;8.02;5.53;;;;;;;16.19;35.05;100096.84;20761931;28;20193;-75
2023/05/15 14:44:36;;;;;;;7.28;5.45;;;;;;;15.93;34.50;100099.72;20758785;28;20229;-77
2023/05/15 14:54:39;;;;;;;40.08;24.25;;;;;;;16.22;36.93;100086.69;20762590;28;20525;-72
2023/05/15 15:04:41;;;;;;;20.15;13.43;;;;;;;16.40;39.36;100116.25;20771545;28;20616;-73
2023/05/15 15:14:43;;;;;;;5.55;5.00;;;;;;;15.47;35.85;100125.44;20739220;28;20303;-78
2023/05/15 15:24:45;;;;;;;4.75;3.75;;;;;;;15.41;35.39;100120.41;20742112;28;20267;-78
2023/05/15 15:34:47;;;;;;;3.38;3.08;;;;;;;15.79;33.31;100123.09;20736429;28;20189;-77
2023/05/15 15:44:50;;;;;;;5.70;4.97;;;;;;;15.47;37.19;100124.59;20759229;28;20221;-76
2023/05/15 15:54:52;;;;;;;8.27;7.00;;;;;;;14.96;40.33;100129.75;20764977;28;20275;-77
2023/05/15 16:04:54;;;;;;;6.30;5.22;;;;;;;14.86;41.55;100139.72;20720956;28;20221;-77
2023/05/15 16:14:56;;;;;;;6.93;6.18;;;;;;;13.86;42.84;100142.41;20727260;28;20318;-77
2023/05/15 16:25:08;;;;;;;9.77;7.03;;;;;;;14.79;40.88;100142.41;20845785;28;20215;-77
2023/05/15 16:35:10;;;;;;;5.88;5.28;;;;;;;14.95;40.46;100150.84;20804265;28;20185;-76
2023/05/15 16:45:12;;;;;;;3.85;3.55;;;;;;;14.78;38.44;100152.13;20810961;28;20224;-77
2023/05/15 16:55:16;;;;;;;4.45;4.05;;;;;;;14.42;40.69;100154.22;20796625;28;20196;-76
2023/05/15 17:05:19;;;;;;;8.95;5.53;;;;;;;13.95;42.62;100162.91;20824311;28;20524;-77
2023/05/15 17:15:22;;;;;;;4.30;3.90;;;;;;;14.61;40.40;100166.81;20842749;28;20270;-78
2023/05/15 17:25:24;;;;;;;4.18;3.80;;;;;;;13.73;40.84;100178.53;20837598;28;20213;-78
2023/05/15 17:35:26;;;;;;;7.47;6.00;;;;;;;13.95;43.25;100187.63;20802120;28;20247;-77
2023/05/15 17:45:33;;;;;;;6.43;5.68;;;;;;;13.65;44.37;100207.94;20836026;28;20220;-78
2023/05/15 17:55:35;;;;;;;7.47;5.93;;;;;;;13.99;43.58;100211.22;20830997;28;20185;-78
2023/05/15 18:05:37;;;;;;;6.22;5.63;;;;;;;13.61;45.28;100229.69;20851393;28;20220;-78
2023/05/15 18:15:39;;;;;;;6.95;6.25;;;;;;;13.82;45.54;100237.16;20830210;28;20216;-78
2023/05/15 18:57:36;;;;;;;8.25;6.75;;;;;;;12.19;50.62;100301.16;20704333;23;20284;-78
2023/05/15 19:07:40;;;;;;;8.40;7.55;;;;;;;12.44;52.27;100319.78;20262177;29;20221;-80
2023/05/15 19:17:44;;;;;;;11.05;8.73;;;;;;;12.65;51.49;100328.97;20273821;29;20201;-77
2023/05/15 19:27:46;;;;;;;8.73;7.90;;;;;;;12.74;52.59;100334.50;20272597;29;20288;-77
2023/05/15 19:37:49;;;;;;;11.35;9.20;;;;;;;11.95;56.40;100353.72;20314187;29;20205;-77
2023/05/15 19:47:51;;;;;;;11.43;9.68;;;;;;;11.42;59.39;100368.78;20308879;29;20225;-78
2023/05/15 19:57:54;;;;;;;14.48;10.00;;;;;;;11.65;59.90;100372.03;20195151;29;20234;-81
2023/05/15 20:07:57;;;;;;;13.15;9.95;;;;;;;10.71;63.86;100384.97;20153417;29;20278;-80
2023/05/15 20:17:59;;;;;;;13.88;9.93;;;;;;;11.80;59.50;100396.81;20128723;29;20218;-83
2023/05/15 20:28:03;;;;;;;17.08;12.95;;;;;;;11.10;60.88;100406.28;20125561;29;20218;-81
2023/05/15 20:38:05;;;;;;;14.55;11.23;;;;;;;11.30;59.95;100411.91;20170453;29;20198;-82
2023/05/15 20:48:09;;;;;;;16.92;11.15;;;;;;;10.78;60.33;100405.00;20196520;29;20281;-80
2023/05/15 20:58:12;;;;;;;17.38;10.02;;;;;;;11.23;58.73;100417.31;20192655;29;20643;-80
2023/05/15 21:08:14;;;;;;;12.32;9.30;;;;;;;11.24;58.30;100407.66;20191587;29;20214;-82
2023/05/15 21:18:17;;;;;;;13.87;9.27;;;;;;;11.28;57.33;100419.06;20184870;29;20607;-82
2023/05/15 21:28:19;;;;;;;13.30;9.87;;;;;;;10.93;58.06;100425.00;20186614;29;20247;-79
2023/05/15 21:38:22;;;;;;;14.35;10.38;;;;;;;10.99;58.10;100426.44;20205140;29;20262;-82
2023/05/15 21:48:24;;;;;;;13.98;8.93;;;;;;;11.06;57.65;100419.44;20207966;29;20210;-82
2023/05/15 21:58:27;;;;;;;11.70;9.20;;;;;;;11.26;56.91;100415.75;20198608;29;20234;-77
2023/05/15 22:08:29;;;;;;;7.20;6.50;;;;;;;10.63;59.44;100423.34;20187416;29;20246;-79
2023/05/15 22:18:33;;;;;;;10.50;6.10;;;;;;;11.16;57.67;100416.19;20188770;29;20194;-79
2023/05/15 22:28:36;;;;;;;5.93;4.93;;;;;;;10.97;58.93;100419.50;20204179;29;20221;-77
2023/05/15 22:38:38;;;;;;;6.28;5.15;;;;;;;10.91;60.95;100421.69;20201610;29;20262;-78
2023/05/15 22:48:40;;;;;;;7.57;4.85;;;;;;;10.50;62.61;100430.06;20169417;29;20221;-77
2023/05/15 22:58:42;;;;;;;8.30;5.28;;;;;;;10.53;62.26;100440.69;20198949;29;20234;-79
2023/05/15 23:08:45;;;;;;;10.43;6.70;;;;;;;10.16;64.86;100445.13;20200680;29;20278;-82
2023/05/15 23:18:47;;;;;;;14.48;9.88;;;;;;;9.82;68.27;100440.41;20189585;29;20198;-78
2023/05/15 23:28:49;;;;;;;13.68;11.23;;;;;;;9.47;68.43;100468.59;20170082;29;20568;-82
2023/05/15 23:38:52;;;;;;;13.83;11.10;;;;;;;9.18;69.14;100488.94;20192699;29;20549;-78
2023/05/15 23:48:54;;;;;;;13.73;10.53;;;;;;;8.80;70.15;100499.97;20197573;29;20615;-82
2023/05/15 23:58:56;;;;;;;13.63;10.73;;;;;;;9.32;68.67;100505.69;20198811;29;20254;-77
